sensor_id;sensor_type;location;lat;lon;timestamp;P1;durP1;ratioP1;P2;durP2;ratioP2
20179;SDS011;10249;48.900;9.090;2023-02-11T00:01:58;12.60;;;12.10;;
20179;SDS011;10249;48.900;9.090;2023-02-11T00:04:27;11.87;;;11.47;;
20179;SDS011;10249;48.900;9.090;2023-02-11T00:06:54;15.93;;;15.03;;
20179;SDS011;10249;48.900;9.090;2023-02-11T00:09:21;12.47;;;11.97;;
20179;SDS011;10249;48.900;9.090;2023-02-11T00:11:48;12.10;;;11.70;;
20179;SDS011;10249;48.900;9.090;2023-02-11T00:14:15;17.00;;;15.73;;
20179;SDS011;10249;48.900;9.090;2023-02-11T00:16:42;16.23;;;15.13;;
20179;SDS011;10249;48.900;9.090;2023-02-11T00:19:09;12.83;;;12.33;;
20179;SDS011;10249;48.900;9.090;2023-02-11T00:21:38;12.10;;;11.70;;
20179;SDS011;10249;48.900;9.090;2023-02-11T00:24:06;11.93;;;11.53;;
20179;SDS011;10249;48.900;9.090;2023-02-11T00:26:33;12.10;;;11.70;;
20179;SDS011;10249;48.900;9.090;2023-02-11T00:29:01;11.90;;;11.50;;
20179;SDS011;10249;48.900;9.090;2023-02-11T00:31:28;12.10;;;11.70;;
20179;SDS011;10249;48.900;9.090;2023-02-11T00:33:55;12.10;;;11.70;;
20179;SDS011;10249;48.900;9.090;2023-02-11T00:36:23;12.03;;;11.63;;
20179;SDS011;10249;48.900;9.090;2023-02-11T00:38:52;12.17;;;11.77;;
20179;SDS011;10249;48.900;9.090;2023-02-11T00:41:20;13.13;;;12.63;;
20179;SDS011;10249;48.900;9.090;2023-02-11T00:43:47;12.10;;;11.70;;
20179;SDS011;10249;48.900;9.090;2023-02-11T00:46:15;12.40;;;12.00;;
20179;SDS011;10249;48.900;9.090;2023-02-11T00:48:42;12.40;;;12.00;;
20179;SDS011;10249;48.900;9.090;2023-02-11T00:51:09;13.80;;;13.20;;
20179;SDS011;10249;48.900;9.090;2023-02-11T00:53:37;12.10;;;11.70;;
20179;SDS011;10249;48.900;9.090;2023-02-11T00:56:05;11.90;;;11.50;;
20179;SDS011;10249;48.900;9.090;2023-02-11T00:58:32;12.30;;;11.90;;
20179;SDS011;10249;48.900;9.090;2023-02-11T01:01:00;12.00;;;11.60;;
20179;SDS011;10249;48.900;9.090;2023-02-11T01:03:27;12.10;;;11.70;;
20179;SDS011;10249;48.900;9.090;2023-02-11T01:05:54;12.30;;;11.90;;
20179;SDS011;10249;48.900;9.090;2023-02-11T01:08:21;12.33;;;11.93;;
20179;SDS011;10249;48.900;9.090;2023-02-11T01:10:54;13.00;;;12.50;;
20179;SDS011;10249;48.900;9.090;2023-02-11T01:13:23;12.23;;;11.83;;
20179;SDS011;10249;48.900;9.090;2023-02-11T01:15:50;12.17;;;11.77;;
20179;SDS011;10249;48.900;9.090;2023-02-11T01:18:17;11.97;;;11.57;;
20179;SDS011;10249;48.900;9.090;2023-02-11T01:20:45;16.53;;;15.33;;
20179;SDS011;10249;48.900;9.090;2023-02-11T01:23:12;11.80;;;11.40;;
20179;SDS011;10249;48.900;9.090;2023-02-11T01:25:39;11.77;;;11.37;;
20179;SDS011;10249;48.900;9.090;2023-02-11T01:28:06;13.20;;;12.60;;
20179;SDS011;10249;48.900;9.090;2023-02-11T01:30:34;11.30;;;10.90;;
20179;SDS011;10249;48.900;9.090;2023-02-11T01:33:01;11.47;;;11.07;;
20179;SDS011;10249;48.900;9.090;2023-02-11T01:35:28;11.30;;;10.90;;
20179;SDS011;10249;48.900;9.090;2023-02-11T01:37:55;11.37;;;10.97;;
20179;SDS011;10249;48.900;9.090;2023-02-11T01:40:22;11.40;;;11.00;;
20179;SDS011;10249;48.900;9.090;2023-02-11T01:42:50;11.20;;;10.80;;
20179;SDS011;10249;48.900;9.090;2023-02-11T01:45:46;13.03;;;12.53;;
20179;SDS011;10249;48.900;9.090;2023-02-11T01:48:18;12.00;;;11.60;;
20179;SDS011;10249;48.900;9.090;2023-02-11T01:50:48;11.20;;;10.80;;
20179;SDS011;10249;48.900;9.090;2023-02-11T01:53:16;11.70;;;11.30;;
20179;SDS011;10249;48.900;9.090;2023-02-11T01:56:01;11.70;;;11.30;;
20179;SDS011;10249;48.900;9.090;2023-02-11T01:58:46;11.70;;;11.30;;
20179;SDS011;10249;48.900;9.090;2023-02-11T02:01:18;16.83;;;15.77;;
20179;SDS011;10249;48.900;9.090;2023-02-11T02:03:46;11.93;;;11.53;;
20179;SDS011;10249;48.900;9.090;2023-02-11T02:06:15;11.80;;;11.40;;
20179;SDS011;10249;48.900;9.090;2023-02-11T02:08:45;11.97;;;11.57;;
20179;SDS011;10249;48.900;9.090;2023-02-11T02:11:14;12.20;;;11.80;;
20179;SDS011;10249;48.900;9.090;2023-02-11T02:13:41;12.30;;;11.90;;
20179;SDS011;10249;48.900;9.090;2023-02-11T02:16:10;13.53;;;13.03;;
20179;SDS011;10249;48.900;9.090;2023-02-11T02:18:41;14.00;;;13.50;;
20179;SDS011;10249;48.900;9.090;2023-02-11T02:21:19;12.40;;;12.00;;
20179;SDS011;10249;48.900;9.090;2023-02-11T02:32:30;11.90;;;11.50;;
20179;SDS011;10249;48.900;9.090;2023-02-11T02:35:03;11.90;;;11.50;;
20179;SDS011;10249;48.900;9.090;2023-02-11T02:37:35;11.80;;;11.40;;
20179;SDS011;10249;48.900;9.090;2023-02-11T02:40:05;12.33;;;11.93;;
20179;SDS011;10249;48.900;9.090;2023-02-11T02:42:33;12.07;;;11.67;;
20179;SDS011;10249;48.900;9.090;2023-02-11T02:45:01;11.60;;;11.20;;
20179;SDS011;10249;48.900;9.090;2023-02-11T02:47:29;11.83;;;11.43;;
20179;SDS011;10249;48.900;9.090;2023-02-11T02:49:56;12.10;;;11.70;;
20179;SDS011;10249;48.900;9.090;2023-02-11T02:52:27;11.90;;;11.50;;
20179;SDS011;10249;48.900;9.090;2023-02-11T02:57:49;11.60;;;11.20;;
20179;SDS011;10249;48.900;9.090;2023-02-11T03:00:23;12.40;;;11.90;;
20179;SDS011;10249;48.900;9.090;2023-02-11T03:02:57;11.33;;;10.93;;
20179;SDS011;10249;48.900;9.090;2023-02-11T03:05:29;11.50;;;11.10;;
20179;SDS011;10249;48.900;9.090;2023-02-11T03:07:59;21.83;;;20.40;;
20179;SDS011;10249;48.900;9.090;2023-02-11T03:10:30;10.53;;;10.23;;
20179;SDS011;10249;48.900;9.090;2023-02-11T03:12:58;10.10;;;9.80;;
20179;SDS011;10249;48.900;9.090;2023-02-11T03:15:28;24.77;;;15.40;;
20179;SDS011;10249;48.900;9.090;2023-02-11T03:17:59;15.27;;;14.43;;
20179;SDS011;10249;48.900;9.090;2023-02-11T03:20:26;13.43;;;12.20;;
20179;SDS011;10249;48.900;9.090;2023-02-11T03:22:56;12.73;;;11.83;;
20179;SDS011;10249;48.900;9.090;2023-02-11T03:25:25;11.13;;;10.63;;
20179;SDS011;10249;48.900;9.090;2023-02-11T03:27:57;19.13;;;16.03;;
20179;SDS011;10249;48.900;9.090;2023-02-11T03:30:26;10.00;;;9.70;;
20179;SDS011;10249;48.900;9.090;2023-02-11T03:32:56;11.93;;;11.13;;
20179;SDS011;10249;48.900;9.090;2023-02-11T03:35:25;14.20;;;13.03;;
20179;SDS011;10249;48.900;9.090;2023-02-11T03:37:55;12.07;;;11.37;;
20179;SDS011;10249;48.900;9.090;2023-02-11T03:40:24;11.47;;;11.07;;
20179;SDS011;10249;48.900;9.090;2023-02-11T03:42:52;13.73;;;12.90;;
20179;SDS011;10249;48.900;9.090;2023-02-11T03:45:21;19.07;;;17.30;;
20179;SDS011;10249;48.900;9.090;2023-02-11T03:47:50;16.30;;;15.03;;
20179;SDS011;10249;48.900;9.090;2023-02-11T03:50:19;12.43;;;11.70;;
20179;SDS011;10249;48.900;9.090;2023-02-11T03:52:48;14.37;;;13.07;;
20179;SDS011;10249;48.900;9.090;2023-02-11T03:55:16;13.00;;;12.40;;
20179;SDS011;10249;48.900;9.090;2023-02-11T03:57:43;14.00;;;13.03;;
20179;SDS011;10249;48.900;9.090;2023-02-11T04:00:11;13.33;;;12.10;;
20179;SDS011;10249;48.900;9.090;2023-02-11T04:02:38;11.67;;;11.27;;
20179;SDS011;10249;48.900;9.090;2023-02-11T04:05:06;10.40;;;10.10;;
20179;SDS011;10249;48.900;9.090;2023-02-11T04:07:34;10.20;;;9.90;;
20179;SDS011;10249;48.900;9.090;2023-02-11T04:10:02;10.70;;;10.30;;
20179;SDS011;10249;48.900;9.090;2023-02-11T04:12:30;10.97;;;10.57;;
20179;SDS011;10249;48.900;9.090;2023-02-11T04:14:57;11.00;;;10.60;;
20179;SDS011;10249;48.900;9.090;2023-02-11T04:17:24;10.90;;;10.50;;
20179;SDS011;10249;48.900;9.090;2023-02-11T04:19:51;11.23;;;10.83;;
20179;SDS011;10249;48.900;9.090;2023-02-11T04:22:18;11.70;;;11.30;;
20179;SDS011;10249;48.900;9.090;2023-02-11T04:24:45;11.43;;;11.03;;
20179;SDS011;10249;48.900;9.090;2023-02-11T04:27:13;11.70;;;11.30;;
20179;SDS011;10249;48.900;9.090;2023-02-11T04:29:41;12.43;;;12.03;;
20179;SDS011;10249;48.900;9.090;2023-02-11T04:32:08;11.80;;;11.40;;
20179;SDS011;10249;48.900;9.090;2023-02-11T04:34:35;12.00;;;11.60;;
20179;SDS011;10249;48.900;9.090;2023-02-11T04:37:02;11.90;;;11.50;;
20179;SDS011;10249;48.900;9.090;2023-02-11T04:39:29;11.80;;;11.40;;
20179;SDS011;10249;48.900;9.090;2023-02-11T04:41:56;12.20;;;11.80;;
20179;SDS011;10249;48.900;9.090;2023-02-11T04:44:25;13.17;;;12.37;;
20179;SDS011;10249;48.900;9.090;2023-02-11T04:46:52;12.60;;;11.97;;
20179;SDS011;10249;48.900;9.090;2023-02-11T04:49:19;13.82;;;12.73;;
20179;SDS011;10249;48.900;9.090;2023-02-11T04:51:46;10.70;;;10.30;;
20179;SDS011;10249;48.900;9.090;2023-02-11T04:54:13;11.10;;;10.70;;
20179;SDS011;10249;48.900;9.090;2023-02-11T04:56:40;10.90;;;10.50;;
20179;SDS011;10249;48.900;9.090;2023-02-11T04:59:07;11.07;;;10.67;;
20179;SDS011;10249;48.900;9.090;2023-02-11T05:01:37;11.00;;;10.60;;
20179;SDS011;10249;48.900;9.090;2023-02-11T05:04:04;11.40;;;11.00;;
20179;SDS011;10249;48.900;9.090;2023-02-11T05:06:31;11.43;;;11.03;;
20179;SDS011;10249;48.900;9.090;2023-02-11T05:08:58;11.77;;;11.37;;
20179;SDS011;10249;48.900;9.090;2023-02-11T05:11:25;19.53;;;17.73;;
20179;SDS011;10249;48.900;9.090;2023-02-11T05:13:52;12.07;;;11.57;;
20179;SDS011;10249;48.900;9.090;2023-02-11T05:16:19;11.43;;;11.03;;
20179;SDS011;10249;48.900;9.090;2023-02-11T05:18:48;16.60;;;15.43;;
20179;SDS011;10249;48.900;9.090;2023-02-11T05:21:16;16.97;;;15.73;;
20179;SDS011;10249;48.900;9.090;2023-02-11T05:23:44;11.27;;;10.87;;
20179;SDS011;10249;48.900;9.090;2023-02-11T05:26:11;11.30;;;10.90;;
20179;SDS011;10249;48.900;9.090;2023-02-11T05:28:39;11.73;;;11.17;;
20179;SDS011;10249;48.900;9.090;2023-02-11T05:31:06;13.73;;;12.93;;
20179;SDS011;10249;48.900;9.090;2023-02-11T05:33:34;15.43;;;14.00;;
20179;SDS011;10249;48.900;9.090;2023-02-11T05:36:03;12.10;;;11.60;;
20179;SDS011;10249;48.900;9.090;2023-02-11T05:38:30;13.93;;;12.63;;
20179;SDS011;10249;48.900;9.090;2023-02-11T05:40:58;11.80;;;11.20;;
20179;SDS011;10249;48.900;9.090;2023-02-11T05:43:25;12.50;;;11.90;;
20179;SDS011;10249;48.900;9.090;2023-02-11T05:45:52;10.63;;;10.23;;
20179;SDS011;10249;48.900;9.090;2023-02-11T05:48:19;10.27;;;9.97;;
20179;SDS011;10249;48.900;9.090;2023-02-11T05:50:46;10.47;;;10.10;;
20179;SDS011;10249;48.900;9.090;2023-02-11T05:53:14;13.63;;;12.75;;
20179;SDS011;10249;48.900;9.090;2023-02-11T05:55:42;10.80;;;10.40;;
20179;SDS011;10249;48.900;9.090;2023-02-11T05:58:09;10.43;;;10.13;;
20179;SDS011;10249;48.900;9.090;2023-02-11T06:00:36;10.90;;;10.50;;
20179;SDS011;10249;48.900;9.090;2023-02-11T06:03:03;11.20;;;10.80;;
20179;SDS011;10249;48.900;9.090;2023-02-11T06:05:30;12.00;;;11.60;;
20179;SDS011;10249;48.900;9.090;2023-02-11T06:07:58;12.17;;;11.77;;
20179;SDS011;10249;48.900;9.090;2023-02-11T06:10:26;12.07;;;11.67;;
20179;SDS011;10249;48.900;9.090;2023-02-11T06:12:53;12.20;;;11.80;;
20179;SDS011;10249;48.900;9.090;2023-02-11T06:15:20;12.20;;;11.80;;
20179;SDS011;10249;48.900;9.090;2023-02-11T06:17:47;13.10;;;12.60;;
20179;SDS011;10249;48.900;9.090;2023-02-11T06:20:14;12.30;;;11.90;;
20179;SDS011;10249;48.900;9.090;2023-02-11T06:22:42;12.77;;;12.30;;
20179;SDS011;10249;48.900;9.090;2023-02-11T06:25:09;12.80;;;12.37;;
20179;SDS011;10249;48.900;9.090;2023-02-11T06:27:37;21.80;;;20.57;;
20179;SDS011;10249;48.900;9.090;2023-02-11T06:30:05;17.93;;;17.00;;
20179;SDS011;10249;48.900;9.090;2023-02-11T06:32:32;12.23;;;11.83;;
20179;SDS011;10249;48.900;9.090;2023-02-11T06:35:00;12.17;;;11.77;;
20179;SDS011;10249;48.900;9.090;2023-02-11T06:37:27;16.33;;;15.43;;
20179;SDS011;10249;48.900;9.090;2023-02-11T06:39:54;17.53;;;16.30;;
20179;SDS011;10249;48.900;9.090;2023-02-11T06:42:21;11.40;;;11.00;;
20179;SDS011;10249;48.900;9.090;2023-02-11T06:44:49;11.50;;;11.10;;
20179;SDS011;10249;48.900;9.090;2023-02-11T06:47:17;10.80;;;10.40;;
20179;SDS011;10249;48.900;9.090;2023-02-11T06:49:44;10.70;;;10.30;;
20179;SDS011;10249;48.900;9.090;2023-02-11T06:52:11;10.80;;;10.40;;
20179;SDS011;10249;48.900;9.090;2023-02-11T06:54:38;11.17;;;10.77;;
20179;SDS011;10249;48.900;9.090;2023-02-11T06:57:05;11.00;;;10.60;;
20179;SDS011;10249;48.900;9.090;2023-02-11T06:59:32;11.30;;;10.90;;
20179;SDS011;10249;48.900;9.090;2023-02-11T07:02:01;13.70;;;12.87;;
20179;SDS011;10249;48.900;9.090;2023-02-11T07:04:28;15.50;;;14.60;;
20179;SDS011;10249;48.900;9.090;2023-02-11T07:06:55;14.67;;;13.53;;
20179;SDS011;10249;48.900;9.090;2023-02-11T07:09:22;14.47;;;13.37;;
20179;SDS011;10249;48.900;9.090;2023-02-11T07:11:49;14.97;;;13.90;;
20179;SDS011;10249;48.900;9.090;2023-02-11T07:14:16;11.73;;;11.33;;
20179;SDS011;10249;48.900;9.090;2023-02-11T07:16:43;11.07;;;10.67;;
20179;SDS011;10249;48.900;9.090;2023-02-11T07:19:11;11.37;;;10.93;;
20179;SDS011;10249;48.900;9.090;2023-02-11T07:21:39;11.80;;;11.20;;
20179;SDS011;10249;48.900;9.090;2023-02-11T07:24:06;13.53;;;12.70;;
20179;SDS011;10249;48.900;9.090;2023-02-11T07:26:33;16.23;;;15.07;;
20179;SDS011;10249;48.900;9.090;2023-02-11T07:29:01;12.03;;;11.53;;
20179;SDS011;10249;48.900;9.090;2023-02-11T07:31:28;13.67;;;12.80;;
20179;SDS011;10249;48.900;9.090;2023-02-11T07:33:57;11.80;;;11.30;;
20179;SDS011;10249;48.900;9.090;2023-02-11T07:36:25;11.10;;;10.70;;
20179;SDS011;10249;48.900;9.090;2023-02-11T07:38:53;16.07;;;14.70;;
20179;SDS011;10249;48.900;9.090;2023-02-11T07:41:20;14.67;;;13.73;;
20179;SDS011;10249;48.900;9.090;2023-02-11T07:43:48;12.03;;;11.43;;
20179;SDS011;10249;48.900;9.090;2023-02-11T07:46:16;13.13;;;12.40;;
20179;SDS011;10249;48.900;9.090;2023-02-11T07:48:43;11.77;;;11.27;;
20179;SDS011;10249;48.900;9.090;2023-02-11T07:51:11;18.73;;;17.03;;
20179;SDS011;10249;48.900;9.090;2023-02-11T07:53:39;16.30;;;15.07;;
20179;SDS011;10249;48.900;9.090;2023-02-11T07:56:07;14.70;;;13.80;;
20179;SDS011;10249;48.900;9.090;2023-02-11T07:58:35;19.70;;;17.93;;
20179;SDS011;10249;48.900;9.090;2023-02-11T08:01:02;17.07;;;15.93;;
20179;SDS011;10249;48.900;9.090;2023-02-11T08:03:30;16.53;;;15.33;;
20179;SDS011;10249;48.900;9.090;2023-02-11T08:05:57;14.50;;;13.80;;
20179;SDS011;10249;48.900;9.090;2023-02-11T08:08:24;12.73;;;12.13;;
20179;SDS011;10249;48.900;9.090;2023-02-11T08:10:53;15.37;;;14.53;;
20179;SDS011;10249;48.900;9.090;2023-02-11T08:13:21;16.40;;;15.37;;
20179;SDS011;10249;48.900;9.090;2023-02-11T08:15:48;15.23;;;14.30;;
20179;SDS011;10249;48.900;9.090;2023-02-11T08:18:15;14.13;;;13.13;;
20179;SDS011;10249;48.900;9.090;2023-02-11T08:20:42;12.17;;;11.67;;
20179;SDS011;10249;48.900;9.090;2023-02-11T08:23:09;15.43;;;14.40;;
20179;SDS011;10249;48.900;9.090;2023-02-11T08:25:36;14.67;;;13.83;;
20179;SDS011;10249;48.900;9.090;2023-02-11T08:28:05;13.80;;;13.10;;
20179;SDS011;10249;48.900;9.090;2023-02-11T08:30:33;12.30;;;11.77;;
20179;SDS011;10249;48.900;9.090;2023-02-11T08:33:00;11.53;;;11.13;;
20179;SDS011;10249;48.900;9.090;2023-02-11T08:35:27;12.73;;;12.23;;
20179;SDS011;10249;48.900;9.090;2023-02-11T08:37:54;15.73;;;14.57;;
20179;SDS011;10249;48.900;9.090;2023-02-11T08:40:21;12.40;;;11.90;;
20179;SDS011;10249;48.900;9.090;2023-02-11T08:42:49;13.57;;;12.60;;
20179;SDS011;10249;48.900;9.090;2023-02-11T08:45:17;15.60;;;14.60;;
20179;SDS011;10249;48.900;9.090;2023-02-11T08:47:44;14.40;;;13.70;;
20179;SDS011;10249;48.900;9.090;2023-02-11T08:50:11;16.37;;;15.43;;
20179;SDS011;10249;48.900;9.090;2023-02-11T08:52:38;16.73;;;15.53;;
20179;SDS011;10249;48.900;9.090;2023-02-11T08:55:06;15.00;;;13.97;;
20179;SDS011;10249;48.900;9.090;2023-02-11T08:57:33;14.27;;;13.60;;
20179;SDS011;10249;48.900;9.090;2023-02-11T09:00:00;13.83;;;13.13;;
20179;SDS011;10249;48.900;9.090;2023-02-11T09:02:28;15.00;;;14.03;;
20179;SDS011;10249;48.900;9.090;2023-02-11T09:04:55;15.70;;;14.53;;
20179;SDS011;10249;48.900;9.090;2023-02-11T09:07:22;13.97;;;12.90;;
20179;SDS011;10249;48.900;9.090;2023-02-11T09:09:49;17.23;;;16.13;;
20179;SDS011;10249;48.900;9.090;2023-02-11T09:12:17;12.23;;;11.73;;
20179;SDS011;10249;48.900;9.090;2023-02-11T09:14:44;12.90;;;12.40;;
20179;SDS011;10249;48.900;9.090;2023-02-11T09:17:11;12.70;;;12.20;;
20179;SDS011;10249;48.900;9.090;2023-02-11T09:19:39;18.80;;;17.10;;
20179;SDS011;10249;48.900;9.090;2023-02-11T09:22:06;13.30;;;12.80;;
20179;SDS011;10249;48.900;9.090;2023-02-11T09:24:33;17.20;;;16.10;;
20179;SDS011;10249;48.900;9.090;2023-02-11T09:27:00;13.33;;;12.77;;
20179;SDS011;10249;48.900;9.090;2023-02-11T09:29:28;15.47;;;14.43;;
20179;SDS011;10249;48.900;9.090;2023-02-11T09:31:55;13.87;;;13.30;;
20179;SDS011;10249;48.900;9.090;2023-02-11T09:34:22;17.60;;;16.30;;
20179;SDS011;10249;48.900;9.090;2023-02-11T09:36:50;12.87;;;12.33;;
20179;SDS011;10249;48.900;9.090;2023-02-11T09:39:17;14.73;;;14.03;;
20179;SDS011;10249;48.900;9.090;2023-02-11T09:41:58;13.30;;;12.80;;
20179;SDS011;10249;48.900;9.090;2023-02-11T09:44:30;13.97;;;13.37;;
20179;SDS011;10249;48.900;9.090;2023-02-11T09:46:58;15.30;;;14.40;;
20179;SDS011;10249;48.900;9.090;2023-02-11T09:49:29;13.10;;;12.60;;
20179;SDS011;10249;48.900;9.090;2023-02-11T09:52:00;13.20;;;12.70;;
20179;SDS011;10249;48.900;9.090;2023-02-11T09:54:30;15.63;;;14.67;;
20179;SDS011;10249;48.900;9.090;2023-02-11T09:56:59;12.60;;;12.10;;
20179;SDS011;10249;48.900;9.090;2023-02-11T09:59:27;12.50;;;12.00;;
20179;SDS011;10249;48.900;9.090;2023-02-11T10:01:55;13.13;;;12.63;;
20179;SDS011;10249;48.900;9.090;2023-02-11T10:04:28;14.50;;;13.83;;
20179;SDS011;10249;48.900;9.090;2023-02-11T10:07:02;13.60;;;13.00;;
20179;SDS011;10249;48.900;9.090;2023-02-11T10:09:36;17.87;;;16.57;;
20179;SDS011;10249;48.900;9.090;2023-02-11T10:12:12;19.57;;;17.90;;
20179;SDS011;10249;48.900;9.090;2023-02-11T10:14:48;18.30;;;17.00;;
20179;SDS011;10249;48.900;9.090;2023-02-11T10:17:21;15.57;;;14.77;;
20179;SDS011;10249;48.900;9.090;2023-02-11T10:19:58;18.27;;;17.07;;
20179;SDS011;10249;48.900;9.090;2023-02-11T10:22:30;19.90;;;18.23;;
20179;SDS011;10249;48.900;9.090;2023-02-11T10:24:58;19.00;;;17.30;;
20179;SDS011;10249;48.900;9.090;2023-02-11T10:27:27;17.10;;;15.90;;
20179;SDS011;10249;48.900;9.090;2023-02-11T10:29:55;17.53;;;16.07;;
20179;SDS011;10249;48.900;9.090;2023-02-11T10:32:28;19.37;;;17.87;;
20179;SDS011;10249;48.900;9.090;2023-02-11T10:34:59;17.43;;;16.20;;
20179;SDS011;10249;48.900;9.090;2023-02-11T10:37:27;21.37;;;19.33;;
20179;SDS011;10249;48.900;9.090;2023-02-11T10:39:56;20.30;;;18.60;;
20179;SDS011;10249;48.900;9.090;2023-02-11T10:42:23;20.97;;;18.93;;
20179;SDS011;10249;48.900;9.090;2023-02-11T10:44:54;20.83;;;19.00;;
20179;SDS011;10249;48.900;9.090;2023-02-11T10:47:23;17.27;;;16.13;;
20179;SDS011;10249;48.900;9.090;2023-02-11T10:49:51;15.80;;;14.77;;
20179;SDS011;10249;48.900;9.090;2023-02-11T10:52:19;21.70;;;19.83;;
20179;SDS011;10249;48.900;9.090;2023-02-11T10:55:04;17.93;;;16.53;;
20179;SDS011;10249;48.900;9.090;2023-02-11T10:57:33;21.33;;;19.20;;
20179;SDS011;10249;48.900;9.090;2023-02-11T11:00:03;19.43;;;17.67;;
20179;SDS011;10249;48.900;9.090;2023-02-11T11:02:32;16.83;;;15.73;;
20179;SDS011;10249;48.900;9.090;2023-02-11T11:05:01;14.50;;;13.80;;
20179;SDS011;10249;48.900;9.090;2023-02-11T11:07:29;18.00;;;16.70;;
20179;SDS011;10249;48.900;9.090;2023-02-11T11:09:57;15.43;;;14.47;;
20179;SDS011;10249;48.900;9.090;2023-02-11T11:12:29;21.30;;;19.40;;
20179;SDS011;10249;48.900;9.090;2023-02-11T11:14:57;21.50;;;19.47;;
20179;SDS011;10249;48.900;9.090;2023-02-11T11:17:25;20.60;;;18.87;;
20179;SDS011;10249;48.900;9.090;2023-02-11T11:19:53;21.20;;;19.33;;
20179;SDS011;10249;48.900;9.090;2023-02-11T11:22:20;22.30;;;20.30;;
20179;SDS011;10249;48.900;9.090;2023-02-11T11:24:47;21.87;;;19.77;;
20179;SDS011;10249;48.900;9.090;2023-02-11T11:27:19;48.73;;;46.13;;
20179;SDS011;10249;48.900;9.090;2023-02-11T11:29:49;50.13;;;47.47;;
20179;SDS011;10249;48.900;9.090;2023-02-11T11:32:18;46.27;;;43.67;;
20179;SDS011;10249;48.900;9.090;2023-02-11T11:34:48;48.27;;;45.43;;
20179;SDS011;10249;48.900;9.090;2023-02-11T11:37:19;52.10;;;49.10;;
20179;SDS011;10249;48.900;9.090;2023-02-11T11:39:47;49.30;;;46.80;;
20179;SDS011;10249;48.900;9.090;2023-02-11T11:42:26;45.43;;;43.60;;
20179;SDS011;10249;48.900;9.090;2023-02-11T11:44:58;50.47;;;47.77;;
20179;SDS011;10249;48.900;9.090;2023-02-11T11:47:26;52.27;;;49.47;;
20179;SDS011;10249;48.900;9.090;2023-02-11T11:50:14;52.23;;;49.23;;
20179;SDS011;10249;48.900;9.090;2023-02-11T11:52:45;52.93;;;50.20;;
20179;SDS011;10249;48.900;9.090;2023-02-11T11:55:16;53.00;;;50.13;;
20179;SDS011;10249;48.900;9.090;2023-02-11T11:57:44;50.97;;;48.10;;
20179;SDS011;10249;48.900;9.090;2023-02-11T12:00:17;52.43;;;49.23;;
20179;SDS011;10249;48.900;9.090;2023-02-11T12:02:53;47.80;;;45.63;;
20179;SDS011;10249;48.900;9.090;2023-02-11T12:05:26;50.67;;;48.27;;
20179;SDS011;10249;48.900;9.090;2023-02-11T12:07:56;48.17;;;45.90;;
20179;SDS011;10249;48.900;9.090;2023-02-11T12:10:38;54.73;;;51.60;;
20179;SDS011;10249;48.900;9.090;2023-02-11T12:13:22;56.23;;;52.97;;
20179;SDS011;10249;48.900;9.090;2023-02-11T12:15:56;53.80;;;50.83;;
20179;SDS011;10249;48.900;9.090;2023-02-11T12:18:29;53.10;;;50.00;;
20179;SDS011;10249;48.900;9.090;2023-02-11T12:21:14;54.60;;;51.30;;
20179;SDS011;10249;48.900;9.090;2023-02-11T12:23:47;55.60;;;52.40;;
20179;SDS011;10249;48.900;9.090;2023-02-11T12:26:18;54.20;;;51.10;;
20179;SDS011;10249;48.900;9.090;2023-02-11T12:28:51;55.93;;;52.53;;
20179;SDS011;10249;48.900;9.090;2023-02-11T12:31:24;57.93;;;54.17;;
20179;SDS011;10249;48.900;9.090;2023-02-11T12:34:02;55.60;;;52.10;;
20179;SDS011;10249;48.900;9.090;2023-02-11T12:36:35;54.40;;;51.40;;
20179;SDS011;10249;48.900;9.090;2023-02-11T12:39:11;58.50;;;54.73;;
20179;SDS011;10249;48.900;9.090;2023-02-11T12:41:46;55.43;;;52.00;;
20179;SDS011;10249;48.900;9.090;2023-02-11T12:44:52;55.03;;;51.83;;
20179;SDS011;10249;48.900;9.090;2023-02-11T12:47:26;58.20;;;54.40;;
20179;SDS011;10249;48.900;9.090;2023-02-11T12:50:01;55.63;;;52.40;;
20179;SDS011;10249;48.900;9.090;2023-02-11T12:52:32;58.33;;;54.67;;
20179;SDS011;10249;48.900;9.090;2023-02-11T12:55:06;57.43;;;53.87;;
20179;SDS011;10249;48.900;9.090;2023-02-11T12:57:34;55.93;;;52.43;;
20179;SDS011;10249;48.900;9.090;2023-02-11T13:00:03;53.07;;;49.87;;
20179;SDS011;10249;48.900;9.090;2023-02-11T13:02:35;54.00;;;50.80;;
20179;SDS011;10249;48.900;9.090;2023-02-11T13:05:10;52.50;;;49.10;;
20179;SDS011;10249;48.900;9.090;2023-02-11T13:07:42;54.10;;;50.77;;
20179;SDS011;10249;48.900;9.090;2023-02-11T13:10:15;54.20;;;50.77;;
20179;SDS011;10249;48.900;9.090;2023-02-11T13:12:46;55.50;;;51.90;;
20179;SDS011;10249;48.900;9.090;2023-02-11T13:15:31;57.67;;;53.97;;
20179;SDS011;10249;48.900;9.090;2023-02-11T13:18:00;57.00;;;53.20;;
20179;SDS011;10249;48.900;9.090;2023-02-11T13:20:33;54.67;;;51.33;;
20179;SDS011;10249;48.900;9.090;2023-02-11T13:23:03;54.30;;;51.03;;
20179;SDS011;10249;48.900;9.090;2023-02-11T13:25:33;58.00;;;54.20;;
20179;SDS011;10249;48.900;9.090;2023-02-11T13:28:04;56.67;;;53.17;;
20179;SDS011;10249;48.900;9.090;2023-02-11T13:30:35;55.10;;;51.90;;
20179;SDS011;10249;48.900;9.090;2023-02-11T13:33:17;55.50;;;51.90;;
20179;SDS011;10249;48.900;9.090;2023-02-11T13:35:46;57.03;;;53.47;;
20179;SDS011;10249;48.900;9.090;2023-02-11T13:38:18;55.77;;;52.17;;
20179;SDS011;10249;48.900;9.090;2023-02-11T13:40:56;55.73;;;52.20;;
20179;SDS011;10249;48.900;9.090;2023-02-11T13:43:25;51.90;;;48.60;;
20179;SDS011;10249;48.900;9.090;2023-02-11T13:45:56;51.73;;;48.53;;
20179;SDS011;10249;48.900;9.090;2023-02-11T13:48:25;54.27;;;50.73;;
20179;SDS011;10249;48.900;9.090;2023-02-11T13:50:55;53.40;;;50.03;;
20179;SDS011;10249;48.900;9.090;2023-02-11T13:53:22;49.53;;;46.53;;
20179;SDS011;10249;48.900;9.090;2023-02-11T13:55:50;54.10;;;50.90;;
20179;SDS011;10249;48.900;9.090;2023-02-11T13:58:25;50.43;;;47.43;;
20179;SDS011;10249;48.900;9.090;2023-02-11T14:01:00;52.73;;;49.43;;
20179;SDS011;10249;48.900;9.090;2023-02-11T14:03:33;51.77;;;48.73;;
20179;SDS011;10249;48.900;9.090;2023-02-11T14:06:19;51.60;;;48.70;;
20179;SDS011;10249;48.900;9.090;2023-02-11T14:09:09;53.43;;;49.93;;
20179;SDS011;10249;48.900;9.090;2023-02-11T14:14:47;51.37;;;48.50;;
20179;SDS011;10249;48.900;9.090;2023-02-11T14:17:27;54.37;;;51.27;;
20179;SDS011;10249;48.900;9.090;2023-02-11T14:19:57;56.47;;;53.27;;
20179;SDS011;10249;48.900;9.090;2023-02-11T14:22:25;55.13;;;52.03;;
20179;SDS011;10249;48.900;9.090;2023-02-11T14:24:54;54.67;;;51.57;;
20179;SDS011;10249;48.900;9.090;2023-02-11T14:27:27;24.27;;;21.80;;
20179;SDS011;10249;48.900;9.090;2023-02-11T14:30:06;23.10;;;21.20;;
20179;SDS011;10249;48.900;9.090;2023-02-11T14:32:38;21.80;;;19.90;;
20179;SDS011;10249;48.900;9.090;2023-02-11T14:35:11;25.13;;;22.70;;
20179;SDS011;10249;48.900;9.090;2023-02-11T14:37:41;22.83;;;20.90;;
20179;SDS011;10249;48.900;9.090;2023-02-11T14:40:17;20.97;;;19.27;;
20179;SDS011;10249;48.900;9.090;2023-02-11T14:42:48;22.97;;;21.07;;
20179;SDS011;10249;48.900;9.090;2023-02-11T14:45:17;23.77;;;21.70;;
20179;SDS011;10249;48.900;9.090;2023-02-11T14:47:48;24.90;;;22.73;;
20179;SDS011;10249;48.900;9.090;2023-02-11T14:50:21;24.57;;;22.30;;